Terminal Aerodrome Forecast
Issued by NWS

Home | Current Version | Previous Version | Text Only | Print | Product List | Glossary On
Versions: 1 2 3 4 5 6 7 8 9 10 11 12
000
FTUS46 KSGX 171100
TAFCRQ
TAF
KCRQ 171128Z 1712/1812 VRB04KT P6SM FEW200
     FM172000 26008KT P6SM FEW080 SCT120
     FM180200 VRB04KT P6SM FEW015
     FM180600 VRB04KT P6SM OVC012=

USA.gov is the U.S. government's official web portal to all federal, state and local government web resources and services.